sensor_id;sensor_type;location;lat;lon;timestamp;temperature;humidity
68842;SHT35;55849;48.482;2.332;2023-07-02T00:01:37;21.67;52.60
68842;SHT35;55849;48.482;2.332;2023-07-02T00:04:38;21.65;52.73
68842;SHT35;55849;48.482;2.332;2023-07-02T00:07:41;21.62;52.69
68842;SHT35;55849;48.482;2.332;2023-07-02T00:10:43;21.57;52.74
68842;SHT35;55849;48.482;2.332;2023-07-02T00:13:44;21.53;52.68
68842;SHT35;55849;48.482;2.332;2023-07-02T00:16:46;21.53;52.86
68842;SHT35;55849;48.482;2.332;2023-07-02T00:19:48;21.50;52.72
68842;SHT35;55849;48.482;2.332;2023-07-02T00:22:53;21.51;52.76
68842;SHT35;55849;48.482;2.332;2023-07-02T00:25:55;21.49;52.74
68842;SHT35;55849;48.482;2.332;2023-07-02T00:28:56;21.43;52.86
68842;SHT35;55849;48.482;2.332;2023-07-02T00:31:58;21.41;52.90
68842;SHT35;55849;48.482;2.332;2023-07-02T00:34:59;21.36;52.89
68842;SHT35;55849;48.482;2.332;2023-07-02T00:38:03;21.33;52.91
68842;SHT35;55849;48.482;2.332;2023-07-02T00:41:04;21.36;53.13
68842;SHT35;55849;48.482;2.332;2023-07-02T00:44:06;21.34;53.06
68842;SHT35;55849;48.482;2.332;2023-07-02T00:47:09;21.33;53.18
68842;SHT35;55849;48.482;2.332;2023-07-02T00:50:11;21.29;53.27
68842;SHT35;55849;48.482;2.332;2023-07-02T00:53:15;21.26;53.24
68842;SHT35;55849;48.482;2.332;2023-07-02T00:56:17;21.26;53.44
68842;SHT35;55849;48.482;2.332;2023-07-02T00:59:19;21.20;53.53
68842;SHT35;55849;48.482;2.332;2023-07-02T01:02:20;21.19;53.48
68842;SHT35;55849;48.482;2.332;2023-07-02T01:05:26;21.19;53.39
68842;SHT35;55849;48.482;2.332;2023-07-02T01:08:36;21.15;53.62
68842;SHT35;55849;48.482;2.332;2023-07-02T01:11:43;21.10;53.55
68842;SHT35;55849;48.482;2.332;2023-07-02T01:14:48;21.06;53.56
68842;SHT35;55849;48.482;2.332;2023-07-02T01:17:52;21.02;53.66
68842;SHT35;55849;48.482;2.332;2023-07-02T01:20:55;20.99;53.86
68842;SHT35;55849;48.482;2.332;2023-07-02T01:23:58;20.96;53.76
68842;SHT35;55849;48.482;2.332;2023-07-02T01:27:01;20.92;53.64
68842;SHT35;55849;48.482;2.332;2023-07-02T01:30:03;20.88;53.72
68842;SHT35;55849;48.482;2.332;2023-07-02T01:33:05;20.85;53.84
68842;SHT35;55849;48.482;2.332;2023-07-02T01:36:08;20.82;54.10
68842;SHT35;55849;48.482;2.332;2023-07-02T01:39:10;20.84;53.96
68842;SHT35;55849;48.482;2.332;2023-07-02T01:42:13;20.84;54.00
68842;SHT35;55849;48.482;2.332;2023-07-02T01:45:16;20.81;53.96
68842;SHT35;55849;48.482;2.332;2023-07-02T01:48:17;20.75;54.03
68842;SHT35;55849;48.482;2.332;2023-07-02T01:51:20;20.73;54.06
68842;SHT35;55849;48.482;2.332;2023-07-02T01:54:24;20.67;54.11
68842;SHT35;55849;48.482;2.332;2023-07-02T01:57:27;20.63;54.32
68842;SHT35;55849;48.482;2.332;2023-07-02T02:00:30;20.58;54.42
68842;SHT35;55849;48.482;2.332;2023-07-02T02:03:32;20.56;54.58
68842;SHT35;55849;48.482;2.332;2023-07-02T02:06:35;20.57;54.38
68842;SHT35;55849;48.482;2.332;2023-07-02T02:09:37;20.53;54.51
68842;SHT35;55849;48.482;2.332;2023-07-02T02:12:39;20.47;54.68
68842;SHT35;55849;48.482;2.332;2023-07-02T02:15:40;20.50;54.54
68842;SHT35;55849;48.482;2.332;2023-07-02T02:18:42;20.49;54.48
68842;SHT35;55849;48.482;2.332;2023-07-02T02:21:45;20.44;54.64
68842;SHT35;55849;48.482;2.332;2023-07-02T02:24:46;20.39;54.73
68842;SHT35;55849;48.482;2.332;2023-07-02T02:27:48;20.36;54.78
68842;SHT35;55849;48.482;2.332;2023-07-02T02:30:50;20.32;54.86
68842;SHT35;55849;48.482;2.332;2023-07-02T02:33:51;20.29;54.90
68842;SHT35;55849;48.482;2.332;2023-07-02T02:36:54;20.29;55.07
68842;SHT35;55849;48.482;2.332;2023-07-02T02:39:57;20.26;54.99
68842;SHT35;55849;48.482;2.332;2023-07-02T02:42:58;20.25;55.03
68842;SHT35;55849;48.482;2.332;2023-07-02T02:46:00;20.22;55.12
68842;SHT35;55849;48.482;2.332;2023-07-02T02:49:02;20.18;55.20
68842;SHT35;55849;48.482;2.332;2023-07-02T02:52:05;20.12;55.31
68842;SHT35;55849;48.482;2.332;2023-07-02T02:55:09;20.12;55.42
68842;SHT35;55849;48.482;2.332;2023-07-02T02:58:12;20.11;55.37
68842;SHT35;55849;48.482;2.332;2023-07-02T03:01:14;20.06;55.58
68842;SHT35;55849;48.482;2.332;2023-07-02T03:04:15;20.08;55.54
68842;SHT35;55849;48.482;2.332;2023-07-02T03:07:19;20.11;55.57
68842;SHT35;55849;48.482;2.332;2023-07-02T03:10:21;20.06;55.59
68842;SHT35;55849;48.482;2.332;2023-07-02T03:13:23;20.02;55.74
68842;SHT35;55849;48.482;2.332;2023-07-02T03:16:24;20.01;55.90
68842;SHT35;55849;48.482;2.332;2023-07-02T03:19:26;19.97;56.32
68842;SHT35;55849;48.482;2.332;2023-07-02T03:22:29;19.98;56.26
68842;SHT35;55849;48.482;2.332;2023-07-02T03:25:30;19.92;57.31
68842;SHT35;55849;48.482;2.332;2023-07-02T03:28:32;19.85;59.04
68842;SHT35;55849;48.482;2.332;2023-07-02T03:31:35;19.80;58.07
68842;SHT35;55849;48.482;2.332;2023-07-02T03:34:36;19.78;57.59
68842;SHT35;55849;48.482;2.332;2023-07-02T03:37:39;19.74;58.55
68842;SHT35;55849;48.482;2.332;2023-07-02T03:40:44;19.71;57.34
68842;SHT35;55849;48.482;2.332;2023-07-02T03:43:45;19.70;57.18
68842;SHT35;55849;48.482;2.332;2023-07-02T03:46:48;19.67;57.09
68842;SHT35;55849;48.482;2.332;2023-07-02T03:49:49;19.66;56.86
68842;SHT35;55849;48.482;2.332;2023-07-02T03:52:52;19.64;57.16
68842;SHT35;55849;48.482;2.332;2023-07-02T03:55:54;19.62;57.15
68842;SHT35;55849;48.482;2.332;2023-07-02T03:58:55;19.59;57.43
68842;SHT35;55849;48.482;2.332;2023-07-02T04:01:57;19.59;57.82
68842;SHT35;55849;48.482;2.332;2023-07-02T04:04:59;19.57;57.57
68842;SHT35;55849;48.482;2.332;2023-07-02T04:08:02;19.53;57.42
68842;SHT35;55849;48.482;2.332;2023-07-02T04:11:03;19.53;57.71
68842;SHT35;55849;48.482;2.332;2023-07-02T04:14:05;19.47;57.47
68842;SHT35;55849;48.482;2.332;2023-07-02T04:17:06;19.47;57.71
68842;SHT35;55849;48.482;2.332;2023-07-02T04:20:09;19.49;57.98
68842;SHT35;55849;48.482;2.332;2023-07-02T04:23:12;19.47;57.67
68842;SHT35;55849;48.482;2.332;2023-07-02T04:26:14;19.46;58.11
68842;SHT35;55849;48.482;2.332;2023-07-02T04:29:16;19.46;57.99
68842;SHT35;55849;48.482;2.332;2023-07-02T04:32:17;19.45;58.01
68842;SHT35;55849;48.482;2.332;2023-07-02T04:35:19;19.40;58.45
68842;SHT35;55849;48.482;2.332;2023-07-02T04:38:22;19.40;58.59
68842;SHT35;55849;48.482;2.332;2023-07-02T04:41:23;19.40;58.50
68842;SHT35;55849;48.482;2.332;2023-07-02T04:44:25;19.42;58.29
68842;SHT35;55849;48.482;2.332;2023-07-02T04:47:29;19.42;58.40
68842;SHT35;55849;48.482;2.332;2023-07-02T04:50:31;19.39;58.38
68842;SHT35;55849;48.482;2.332;2023-07-02T04:53:34;19.37;58.67
68842;SHT35;55849;48.482;2.332;2023-07-02T04:56:37;19.39;58.82
68842;SHT35;55849;48.482;2.332;2023-07-02T04:59:39;19.40;59.43
68842;SHT35;55849;48.482;2.332;2023-07-02T05:02:41;19.43;59.84
68842;SHT35;55849;48.482;2.332;2023-07-02T05:05:42;19.47;59.83
68842;SHT35;55849;48.482;2.332;2023-07-02T05:08:45;19.52;59.21
68842;SHT35;55849;48.482;2.332;2023-07-02T05:11:47;19.54;60.14
68842;SHT35;55849;48.482;2.332;2023-07-02T05:14:48;19.57;59.54
68842;SHT35;55849;48.482;2.332;2023-07-02T05:17:50;19.60;59.72
68842;SHT35;55849;48.482;2.332;2023-07-02T05:20:52;19.63;59.78
68842;SHT35;55849;48.482;2.332;2023-07-02T05:23:55;19.63;59.83
68842;SHT35;55849;48.482;2.332;2023-07-02T05:26:56;19.63;59.90
68842;SHT35;55849;48.482;2.332;2023-07-02T05:29:58;19.63;60.19
68842;SHT35;55849;48.482;2.332;2023-07-02T05:32:59;19.67;59.83
68842;SHT35;55849;48.482;2.332;2023-07-02T05:36:01;19.69;60.26
68842;SHT35;55849;48.482;2.332;2023-07-02T05:39:04;19.70;60.22
68842;SHT35;55849;48.482;2.332;2023-07-02T05:42:06;19.66;60.57
68842;SHT35;55849;48.482;2.332;2023-07-02T05:45:08;19.71;60.46
68842;SHT35;55849;48.482;2.332;2023-07-02T05:48:09;19.74;60.56
68842;SHT35;55849;48.482;2.332;2023-07-02T05:51:11;19.74;60.50
68842;SHT35;55849;48.482;2.332;2023-07-02T05:54:14;19.73;60.57
68842;SHT35;55849;48.482;2.332;2023-07-02T05:57:15;19.73;60.71
68842;SHT35;55849;48.482;2.332;2023-07-02T06:00:17;19.70;60.82
68842;SHT35;55849;48.482;2.332;2023-07-02T06:03:19;19.63;61.63
68842;SHT35;55849;48.482;2.332;2023-07-02T06:06:21;19.63;61.52
68842;SHT35;55849;48.482;2.332;2023-07-02T06:09:26;19.63;61.31
68842;SHT35;55849;48.482;2.332;2023-07-02T06:12:27;19.67;61.27
68842;SHT35;55849;48.482;2.332;2023-07-02T06:15:29;19.66;61.43
68842;SHT35;55849;48.482;2.332;2023-07-02T06:18:30;19.70;61.21
68842;SHT35;55849;48.482;2.332;2023-07-02T06:21:32;19.71;61.38
68842;SHT35;55849;48.482;2.332;2023-07-02T06:24:35;19.74;61.31
68842;SHT35;55849;48.482;2.332;2023-07-02T06:27:36;19.77;61.41
68842;SHT35;55849;48.482;2.332;2023-07-02T06:30:38;19.77;61.31
68842;SHT35;55849;48.482;2.332;2023-07-02T06:33:40;19.80;61.48
68842;SHT35;55849;48.482;2.332;2023-07-02T06:36:42;19.77;61.34
68842;SHT35;55849;48.482;2.332;2023-07-02T06:39:45;19.81;61.27
68842;SHT35;55849;48.482;2.332;2023-07-02T06:42:47;19.80;61.38
68842;SHT35;55849;48.482;2.332;2023-07-02T06:45:48;19.81;61.43
68842;SHT35;55849;48.482;2.332;2023-07-02T06:48:50;19.81;61.41
68842;SHT35;55849;48.482;2.332;2023-07-02T06:51:51;19.80;61.37
68842;SHT35;55849;48.482;2.332;2023-07-02T06:54:54;19.80;61.37
68842;SHT35;55849;48.482;2.332;2023-07-02T06:57:56;19.78;61.42
68842;SHT35;55849;48.482;2.332;2023-07-02T07:00:58;19.81;61.51
68842;SHT35;55849;48.482;2.332;2023-07-02T07:03:59;19.81;61.57
68842;SHT35;55849;48.482;2.332;2023-07-02T07:07:01;19.84;61.70
68842;SHT35;55849;48.482;2.332;2023-07-02T07:10:06;19.89;61.46
68842;SHT35;55849;48.482;2.332;2023-07-02T07:13:07;19.91;61.27
68842;SHT35;55849;48.482;2.332;2023-07-02T07:16:09;19.94;61.28
68842;SHT35;55849;48.482;2.332;2023-07-02T07:19:11;19.98;61.23
68842;SHT35;55849;48.482;2.332;2023-07-02T07:22:12;19.98;61.24
68842;SHT35;55849;48.482;2.332;2023-07-02T07:25:16;20.04;60.93
68842;SHT35;55849;48.482;2.332;2023-07-02T07:28:17;20.05;60.79
68842;SHT35;55849;48.482;2.332;2023-07-02T07:31:19;20.11;60.81
68842;SHT35;55849;48.482;2.332;2023-07-02T07:34:20;20.15;60.81
68842;SHT35;55849;48.482;2.332;2023-07-02T07:37:24;20.15;60.75
68842;SHT35;55849;48.482;2.332;2023-07-02T07:40:27;20.19;60.71
68842;SHT35;55849;48.482;2.332;2023-07-02T07:43:29;20.22;60.50
68842;SHT35;55849;48.482;2.332;2023-07-02T07:46:30;20.26;60.11
68842;SHT35;55849;48.482;2.332;2023-07-02T07:49:32;20.32;59.74
68842;SHT35;55849;48.482;2.332;2023-07-02T07:52:33;20.34;59.51
68842;SHT35;55849;48.482;2.332;2023-07-02T07:55:36;20.36;59.32
68842;SHT35;55849;48.482;2.332;2023-07-02T07:58:38;20.41;59.46
68842;SHT35;55849;48.482;2.332;2023-07-02T08:01:40;20.46;59.56
68842;SHT35;55849;48.482;2.332;2023-07-02T08:04:41;20.47;58.90
68842;SHT35;55849;48.482;2.332;2023-07-02T08:07:43;20.47;58.83
68842;SHT35;55849;48.482;2.332;2023-07-02T08:10:46;20.54;58.97
68842;SHT35;55849;48.482;2.332;2023-07-02T08:13:50;20.60;59.46
68842;SHT35;55849;48.482;2.332;2023-07-02T08:16:52;20.67;58.95
68842;SHT35;55849;48.482;2.332;2023-07-02T08:19:53;20.68;57.69
68842;SHT35;55849;48.482;2.332;2023-07-02T08:22:55;20.71;56.90
68842;SHT35;55849;48.482;2.332;2023-07-02T08:25:58;20.73;56.85
68842;SHT35;55849;48.482;2.332;2023-07-02T08:28:59;20.74;56.94
68842;SHT35;55849;48.482;2.332;2023-07-02T08:32:01;20.78;57.93
68842;SHT35;55849;48.482;2.332;2023-07-02T08:35:03;20.85;56.86
68842;SHT35;55849;48.482;2.332;2023-07-02T08:38:05;20.91;57.42
68842;SHT35;55849;48.482;2.332;2023-07-02T08:41:09;20.94;56.50
68842;SHT35;55849;48.482;2.332;2023-07-02T08:44:11;20.96;55.77
68842;SHT35;55849;48.482;2.332;2023-07-02T08:47:14;20.98;56.26
68842;SHT35;55849;48.482;2.332;2023-07-02T08:50:15;21.02;56.08
68842;SHT35;55849;48.482;2.332;2023-07-02T08:53:17;21.08;55.70
68842;SHT35;55849;48.482;2.332;2023-07-02T08:56:20;21.16;56.11
68842;SHT35;55849;48.482;2.332;2023-07-02T08:59:22;21.22;54.77
68842;SHT35;55849;48.482;2.332;2023-07-02T09:02:31;21.26;55.36
68842;SHT35;55849;48.482;2.332;2023-07-02T09:05:32;21.30;54.76
68842;SHT35;55849;48.482;2.332;2023-07-02T09:08:34;21.32;54.73
68842;SHT35;55849;48.482;2.332;2023-07-02T09:11:48;21.39;54.50
68842;SHT35;55849;48.482;2.332;2023-07-02T09:14:54;21.43;53.61
68842;SHT35;55849;48.482;2.332;2023-07-02T09:17:56;21.50;52.81
68842;SHT35;55849;48.482;2.332;2023-07-02T09:20:58;21.51;53.07
68842;SHT35;55849;48.482;2.332;2023-07-02T09:23:59;21.54;52.84
68842;SHT35;55849;48.482;2.332;2023-07-02T09:27:03;21.60;53.01
68842;SHT35;55849;48.482;2.332;2023-07-02T09:30:07;21.67;52.57
68842;SHT35;55849;48.482;2.332;2023-07-02T09:33:09;21.69;52.03
68842;SHT35;55849;48.482;2.332;2023-07-02T09:36:11;21.79;52.32
68842;SHT35;55849;48.482;2.332;2023-07-02T09:39:14;21.81;51.91
68842;SHT35;55849;48.482;2.332;2023-07-02T09:42:17;21.82;52.42
68842;SHT35;55849;48.482;2.332;2023-07-02T09:45:20;21.88;52.20
68842;SHT35;55849;48.482;2.332;2023-07-02T09:48:24;21.92;51.94
68842;SHT35;55849;48.482;2.332;2023-07-02T09:51:27;21.96;51.74
68842;SHT35;55849;48.482;2.332;2023-07-02T09:54:29;21.98;51.60
68842;SHT35;55849;48.482;2.332;2023-07-02T09:57:32;21.99;51.38
68842;SHT35;55849;48.482;2.332;2023-07-02T10:00:33;22.02;51.24
68842;SHT35;55849;48.482;2.332;2023-07-02T10:03:35;22.08;49.38
68842;SHT35;55849;48.482;2.332;2023-07-02T10:06:44;22.12;49.64
68842;SHT35;55849;48.482;2.332;2023-07-02T10:09:46;22.14;50.32
68842;SHT35;55849;48.482;2.332;2023-07-02T10:12:49;22.21;49.91
68842;SHT35;55849;48.482;2.332;2023-07-02T10:16:01;22.20;50.23
68842;SHT35;55849;48.482;2.332;2023-07-02T10:19:09;22.20;50.47
68842;SHT35;55849;48.482;2.332;2023-07-02T10:22:11;22.27;50.42
68842;SHT35;55849;48.482;2.332;2023-07-02T10:25:23;22.32;49.94
68842;SHT35;55849;48.482;2.332;2023-07-02T10:28:26;22.40;48.82
68842;SHT35;55849;48.482;2.332;2023-07-02T10:31:28;22.44;48.25
68842;SHT35;55849;48.482;2.332;2023-07-02T10:34:30;22.51;48.67
68842;SHT35;55849;48.482;2.332;2023-07-02T10:37:36;22.61;47.66
68842;SHT35;55849;48.482;2.332;2023-07-02T10:40:38;22.69;47.72
68842;SHT35;55849;48.482;2.332;2023-07-02T10:43:41;22.79;48.09
68842;SHT35;55849;48.482;2.332;2023-07-02T10:46:43;22.86;47.86
68842;SHT35;55849;48.482;2.332;2023-07-02T10:49:45;22.94;48.48
68842;SHT35;55849;48.482;2.332;2023-07-02T10:52:47;22.99;47.96
68842;SHT35;55849;48.482;2.332;2023-07-02T10:55:53;23.07;49.29
68842;SHT35;55849;48.482;2.332;2023-07-02T10:58:57;23.09;48.56
68842;SHT35;55849;48.482;2.332;2023-07-02T11:01:59;23.16;48.81
68842;SHT35;55849;48.482;2.332;2023-07-02T11:05:04;23.23;47.46
68842;SHT35;55849;48.482;2.332;2023-07-02T11:08:08;23.27;47.91
68842;SHT35;55849;48.482;2.332;2023-07-02T11:11:10;23.31;47.37
68842;SHT35;55849;48.482;2.332;2023-07-02T11:14:13;23.36;47.70
68842;SHT35;55849;48.482;2.332;2023-07-02T11:17:15;23.38;47.19
68842;SHT35;55849;48.482;2.332;2023-07-02T11:20:16;23.46;47.07
68842;SHT35;55849;48.482;2.332;2023-07-02T11:23:18;23.50;45.09
68842;SHT35;55849;48.482;2.332;2023-07-02T11:26:22;23.54;45.04
68842;SHT35;55849;48.482;2.332;2023-07-02T11:29:25;23.53;45.58
68842;SHT35;55849;48.482;2.332;2023-07-02T11:32:27;23.55;46.39
68842;SHT35;55849;48.482;2.332;2023-07-02T11:35:35;23.61;45.67
68842;SHT35;55849;48.482;2.332;2023-07-02T11:38:37;23.72;45.28
68842;SHT35;55849;48.482;2.332;2023-07-02T11:41:39;23.79;45.00
68842;SHT35;55849;48.482;2.332;2023-07-02T11:44:42;23.88;44.28
68842;SHT35;55849;48.482;2.332;2023-07-02T11:47:43;23.90;44.42
68842;SHT35;55849;48.482;2.332;2023-07-02T11:50:45;23.93;44.43
68842;SHT35;55849;48.482;2.332;2023-07-02T11:53:47;24.00;44.89
68842;SHT35;55849;48.482;2.332;2023-07-02T11:56:48;24.12;44.29
68842;SHT35;55849;48.482;2.332;2023-07-02T11:59:51;24.23;44.18
68842;SHT35;55849;48.482;2.332;2023-07-02T12:02:53;24.31;43.57
68842;SHT35;55849;48.482;2.332;2023-07-02T12:05:55;24.40;43.77
68842;SHT35;55849;48.482;2.332;2023-07-02T12:08:56;24.51;43.24
68842;SHT35;55849;48.482;2.332;2023-07-02T12:11:58;24.61;43.71
68842;SHT35;55849;48.482;2.332;2023-07-02T12:15:01;24.68;42.68
68842;SHT35;55849;48.482;2.332;2023-07-02T12:18:03;24.80;42.62
68842;SHT35;55849;48.482;2.332;2023-07-02T12:21:04;24.92;43.51
68842;SHT35;55849;48.482;2.332;2023-07-02T12:24:06;25.07;42.58
68842;SHT35;55849;48.482;2.332;2023-07-02T12:27:09;25.28;42.06
68842;SHT35;55849;48.482;2.332;2023-07-02T12:30:12;25.46;42.50
68842;SHT35;55849;48.482;2.332;2023-07-02T12:33:17;25.61;42.18
68842;SHT35;55849;48.482;2.332;2023-07-02T12:36:19;25.69;41.16
68842;SHT35;55849;48.482;2.332;2023-07-02T12:39:20;25.79;41.78
68842;SHT35;55849;48.482;2.332;2023-07-02T12:42:22;25.94;40.81
68842;SHT35;55849;48.482;2.332;2023-07-02T12:45:25;26.10;39.90
68842;SHT35;55849;48.482;2.332;2023-07-02T12:48:27;26.25;40.11
68842;SHT35;55849;48.482;2.332;2023-07-02T12:51:28;26.44;39.96
68842;SHT35;55849;48.482;2.332;2023-07-02T12:54:30;26.62;39.81
68842;SHT35;55849;48.482;2.332;2023-07-02T12:57:34;26.63;38.76
68842;SHT35;55849;48.482;2.332;2023-07-02T13:00:37;26.62;38.89
68842;SHT35;55849;48.482;2.332;2023-07-02T13:03:44;26.69;38.57
68842;SHT35;55849;48.482;2.332;2023-07-02T13:06:46;26.79;39.20
68842;SHT35;55849;48.482;2.332;2023-07-02T13:09:48;26.96;38.74
68842;SHT35;55849;48.482;2.332;2023-07-02T13:12:49;27.14;38.84
68842;SHT35;55849;48.482;2.332;2023-07-02T13:15:52;27.31;39.57
68842;SHT35;55849;48.482;2.332;2023-07-02T13:18:54;27.52;38.61
68842;SHT35;55849;48.482;2.332;2023-07-02T13:21:57;27.77;38.25
68842;SHT35;55849;48.482;2.332;2023-07-02T13:24:58;27.96;36.42
68842;SHT35;55849;48.482;2.332;2023-07-02T13:28:00;28.07;35.83
68842;SHT35;55849;48.482;2.332;2023-07-02T13:31:03;28.21;36.14
68842;SHT35;55849;48.482;2.332;2023-07-02T13:34:04;28.39;35.55
68842;SHT35;55849;48.482;2.332;2023-07-02T13:37:06;28.61;36.16
68842;SHT35;55849;48.482;2.332;2023-07-02T13:40:08;28.86;35.88
68842;SHT35;55849;48.482;2.332;2023-07-02T13:43:12;29.15;34.97
68842;SHT35;55849;48.482;2.332;2023-07-02T13:46:15;29.39;35.45
68842;SHT35;55849;48.482;2.332;2023-07-02T13:49:17;29.53;35.24
68842;SHT35;55849;48.482;2.332;2023-07-02T13:52:22;29.57;33.98
68842;SHT35;55849;48.482;2.332;2023-07-02T13:55:23;29.54;35.04
68842;SHT35;55849;48.482;2.332;2023-07-02T13:58:47;29.66;34.14
68842;SHT35;55849;48.482;2.332;2023-07-02T14:01:49;29.70;33.31
68842;SHT35;55849;48.482;2.332;2023-07-02T14:04:51;29.63;33.62
68842;SHT35;55849;48.482;2.332;2023-07-02T14:07:52;29.64;33.82
68842;SHT35;55849;48.482;2.332;2023-07-02T14:10:54;29.71;33.47
68842;SHT35;55849;48.482;2.332;2023-07-02T14:13:57;29.71;33.39
68842;SHT35;55849;48.482;2.332;2023-07-02T14:16:59;29.76;34.38
68842;SHT35;55849;48.482;2.332;2023-07-02T14:20:01;29.92;34.70
68842;SHT35;55849;48.482;2.332;2023-07-02T14:23:03;30.04;32.90
68842;SHT35;55849;48.482;2.332;2023-07-02T14:26:04;30.13;33.42
68842;SHT35;55849;48.482;2.332;2023-07-02T14:29:07;30.33;33.14
68842;SHT35;55849;48.482;2.332;2023-07-02T14:32:09;30.60;33.10
68842;SHT35;55849;48.482;2.332;2023-07-02T14:35:10;30.90;31.75
68842;SHT35;55849;48.482;2.332;2023-07-02T14:38:12;31.14;31.44
68842;SHT35;55849;48.482;2.332;2023-07-02T14:41:13;31.40;31.26
68842;SHT35;55849;48.482;2.332;2023-07-02T14:44:16;31.47;31.24
68842;SHT35;55849;48.482;2.332;2023-07-02T14:47:18;31.56;31.21
68842;SHT35;55849;48.482;2.332;2023-07-02T14:50:20;31.68;30.45
68842;SHT35;55849;48.482;2.332;2023-07-02T14:53:21;31.77;30.52
68842;SHT35;55849;48.482;2.332;2023-07-02T14:56:23;31.75;30.00
68842;SHT35;55849;48.482;2.332;2023-07-02T14:59:26;31.70;30.11
68842;SHT35;55849;48.482;2.332;2023-07-02T15:02:28;31.60;30.36
68842;SHT35;55849;48.482;2.332;2023-07-02T15:05:29;31.56;31.15
68842;SHT35;55849;48.482;2.332;2023-07-02T15:08:31;31.60;30.52
68842;SHT35;55849;48.482;2.332;2023-07-02T15:11:33;31.57;30.75
68842;SHT35;55849;48.482;2.332;2023-07-02T15:14:36;31.66;30.68
68842;SHT35;55849;48.482;2.332;2023-07-02T15:17:38;31.81;30.58
68842;SHT35;55849;48.482;2.332;2023-07-02T15:20:40;31.84;30.41
68842;SHT35;55849;48.482;2.332;2023-07-02T15:23:41;31.84;29.82
68842;SHT35;55849;48.482;2.332;2023-07-02T15:26:43;31.78;30.27
68842;SHT35;55849;48.482;2.332;2023-07-02T15:29:46;31.86;29.66
68842;SHT35;55849;48.482;2.332;2023-07-02T15:32:48;31.99;29.97
68842;SHT35;55849;48.482;2.332;2023-07-02T15:35:50;32.13;30.47
68842;SHT35;55849;48.482;2.332;2023-07-02T15:38:51;32.26;29.59
68842;SHT35;55849;48.482;2.332;2023-07-02T15:41:53;32.32;29.24
68842;SHT35;55849;48.482;2.332;2023-07-02T15:44:56;32.37;29.42
68842;SHT35;55849;48.482;2.332;2023-07-02T15:47:58;32.43;28.78
68842;SHT35;55849;48.482;2.332;2023-07-02T15:51:02;32.40;28.94
68842;SHT35;55849;48.482;2.332;2023-07-02T15:54:04;32.33;29.07
68842;SHT35;55849;48.482;2.332;2023-07-02T15:57:07;32.20;29.34
68842;SHT35;55849;48.482;2.332;2023-07-02T16:00:11;32.08;29.81
68842;SHT35;55849;48.482;2.332;2023-07-02T16:03:13;32.10;29.91
68842;SHT35;55849;48.482;2.332;2023-07-02T16:06:15;32.15;29.21
68842;SHT35;55849;48.482;2.332;2023-07-02T16:09:17;32.10;29.33
68842;SHT35;55849;48.482;2.332;2023-07-02T16:12:19;32.09;29.55
68842;SHT35;55849;48.482;2.332;2023-07-02T16:15:22;32.12;28.93
68842;SHT35;55849;48.482;2.332;2023-07-02T16:18:23;32.08;29.07
68842;SHT35;55849;48.482;2.332;2023-07-02T16:21:25;31.99;29.48
68842;SHT35;55849;48.482;2.332;2023-07-02T16:24:28;32.05;29.79
68842;SHT35;55849;48.482;2.332;2023-07-02T16:27:33;32.13;29.63
68842;SHT35;55849;48.482;2.332;2023-07-02T16:30:36;32.27;29.25
68842;SHT35;55849;48.482;2.332;2023-07-02T16:33:37;32.39;28.92
68842;SHT35;55849;48.482;2.332;2023-07-02T16:36:39;32.33;28.37
68842;SHT35;55849;48.482;2.332;2023-07-02T16:39:41;32.23;28.75
68842;SHT35;55849;48.482;2.332;2023-07-02T16:42:42;32.16;28.95
68842;SHT35;55849;48.482;2.332;2023-07-02T16:45:52;32.16;28.90
68842;SHT35;55849;48.482;2.332;2023-07-02T16:48:53;32.12;29.12
68842;SHT35;55849;48.482;2.332;2023-07-02T16:51:56;32.12;30.24
68842;SHT35;55849;48.482;2.332;2023-07-02T16:54:58;32.15;29.26
68842;SHT35;55849;48.482;2.332;2023-07-02T16:57:59;31.98;29.62
68842;SHT35;55849;48.482;2.332;2023-07-02T17:01:04;31.85;29.44
68842;SHT35;55849;48.482;2.332;2023-07-02T17:04:06;31.71;29.54
68842;SHT35;55849;48.482;2.332;2023-07-02T17:07:08;31.54;29.94
68842;SHT35;55849;48.482;2.332;2023-07-02T17:10:09;31.40;29.82
68842;SHT35;55849;48.482;2.332;2023-07-02T17:13:11;31.25;30.62
68842;SHT35;55849;48.482;2.332;2023-07-02T17:16:14;31.11;30.11
68842;SHT35;55849;48.482;2.332;2023-07-02T17:19:18;31.00;30.72
68842;SHT35;55849;48.482;2.332;2023-07-02T17:22:21;31.03;30.74
68842;SHT35;55849;48.482;2.332;2023-07-02T17:25:23;31.03;30.37
68842;SHT35;55849;48.482;2.332;2023-07-02T17:28:25;30.91;30.79
68842;SHT35;55849;48.482;2.332;2023-07-02T17:31:28;30.75;30.31
68842;SHT35;55849;48.482;2.332;2023-07-02T17:34:30;30.56;30.52
68842;SHT35;55849;48.482;2.332;2023-07-02T17:37:32;30.41;30.99
68842;SHT35;55849;48.482;2.332;2023-07-02T17:40:38;30.25;30.86
68842;SHT35;55849;48.482;2.332;2023-07-02T17:43:40;30.11;31.27
68842;SHT35;55849;48.482;2.332;2023-07-02T17:46:43;30.08;31.53
68842;SHT35;55849;48.482;2.332;2023-07-02T17:49:46;29.97;31.77
68842;SHT35;55849;48.482;2.332;2023-07-02T17:52:49;29.92;31.51
68842;SHT35;55849;48.482;2.332;2023-07-02T17:55:50;29.82;31.75
68842;SHT35;55849;48.482;2.332;2023-07-02T17:58:52;29.71;31.88
68842;SHT35;55849;48.482;2.332;2023-07-02T18:01:56;29.69;31.89
68842;SHT35;55849;48.482;2.332;2023-07-02T18:04:57;29.60;32.13
68842;SHT35;55849;48.482;2.332;2023-07-02T18:07:59;29.50;32.47
68842;SHT35;55849;48.482;2.332;2023-07-02T18:11:00;29.46;32.57
68842;SHT35;55849;48.482;2.332;2023-07-02T18:14:03;29.39;32.44
68842;SHT35;55849;48.482;2.332;2023-07-02T18:17:06;29.30;32.51
68842;SHT35;55849;48.482;2.332;2023-07-02T18:20:09;29.25;32.86
68842;SHT35;55849;48.482;2.332;2023-07-02T18:23:11;29.18;33.17
68842;SHT35;55849;48.482;2.332;2023-07-02T18:26:12;29.14;32.62
68842;SHT35;55849;48.482;2.332;2023-07-02T18:29:14;29.02;32.86
68842;SHT35;55849;48.482;2.332;2023-07-02T18:32:17;28.95;32.91
68842;SHT35;55849;48.482;2.332;2023-07-02T18:35:19;28.86;32.79
68842;SHT35;55849;48.482;2.332;2023-07-02T18:38:21;28.76;33.17
68842;SHT35;55849;48.482;2.332;2023-07-02T18:41:23;28.66;33.07
68842;SHT35;55849;48.482;2.332;2023-07-02T18:44:24;28.55;33.55
68842;SHT35;55849;48.482;2.332;2023-07-02T18:47:30;28.49;33.64
68842;SHT35;55849;48.482;2.332;2023-07-02T18:50:32;28.42;33.65
68842;SHT35;55849;48.482;2.332;2023-07-02T18:53:34;28.35;34.02
68842;SHT35;55849;48.482;2.332;2023-07-02T18:56:36;28.28;34.10
68842;SHT35;55849;48.482;2.332;2023-07-02T18:59:39;28.19;34.11
68842;SHT35;55849;48.482;2.332;2023-07-02T19:02:47;28.15;33.96
68842;SHT35;55849;48.482;2.332;2023-07-02T19:05:49;28.08;34.04
68842;SHT35;55849;48.482;2.332;2023-07-02T19:08:51;28.00;34.32
68842;SHT35;55849;48.482;2.332;2023-07-02T19:11:53;27.93;34.27